sensor_id;sensor_type;location;lat;lon;timestamp;pressure;altitude;pressure_sealevel;temperature;humidity
70053;BME280;57398;52.032;4.376;2023-04-03T00:02:00;103744.81;;;2.97;100.00
70053;BME280;57398;52.032;4.376;2023-04-03T00:04:48;103747.66;;;2.92;100.00
70053;BME280;57398;52.032;4.376;2023-04-03T00:07:36;103741.28;;;2.85;100.00
70053;BME280;57398;52.032;4.376;2023-04-03T00:10:24;103749.25;;;2.80;100.00
70053;BME280;57398;52.032;4.376;2023-04-03T00:13:13;103747.78;;;2.76;100.00
70053;BME280;57398;52.032;4.376;2023-04-03T00:16:02;103744.69;;;2.71;100.00
70053;BME280;57398;52.032;4.376;2023-04-03T00:18:51;103752.03;;;2.63;100.00
70053;BME280;57398;52.032;4.376;2023-04-03T00:21:39;103756.44;;;2.61;100.00
70053;BME280;57398;52.032;4.376;2023-04-03T00:24:28;103763.03;;;2.50;100.00
70053;BME280;57398;52.032;4.376;2023-04-03T00:27:16;103765.69;;;2.49;100.00
70053;BME280;57398;52.032;4.376;2023-04-03T00:30:06;103773.59;;;2.46;100.00
70053;BME280;57398;52.032;4.376;2023-04-03T00:32:55;103764.06;;;2.48;100.00
70053;BME280;57398;52.032;4.376;2023-04-03T00:35:44;103774.88;;;2.39;100.00
70053;BME280;57398;52.032;4.376;2023-04-03T00:38:32;103778.59;;;2.33;100.00
70053;BME280;57398;52.032;4.376;2023-04-03T00:41:21;103777.78;;;2.33;100.00
70053;BME280;57398;52.032;4.376;2023-04-03T00:44:20;103784.94;;;2.27;100.00
70053;BME280;57398;52.032;4.376;2023-04-03T00:47:11;103790.34;;;2.23;100.00
70053;BME280;57398;52.032;4.376;2023-04-03T00:49:59;103787.78;;;2.23;100.00
70053;BME280;57398;52.032;4.376;2023-04-03T00:52:50;103794.66;;;2.22;100.00
70053;BME280;57398;52.032;4.376;2023-04-03T00:55:39;103797.75;;;2.13;100.00
70053;BME280;57398;52.032;4.376;2023-04-03T00:58:32;103805.06;;;2.05;100.00
70053;BME280;57398;52.032;4.376;2023-04-03T01:01:24;103814.66;;;2.01;100.00
70053;BME280;57398;52.032;4.376;2023-04-03T01:04:26;103820.88;;;1.97;100.00
70053;BME280;57398;52.032;4.376;2023-04-03T01:07:17;103828.00;;;1.92;100.00
70053;BME280;57398;52.032;4.376;2023-04-03T01:10:11;103837.69;;;1.87;100.00
70053;BME280;57398;52.032;4.376;2023-04-03T01:13:00;103838.94;;;1.80;100.00
70053;BME280;57398;52.032;4.376;2023-04-03T01:15:49;103848.47;;;1.78;100.00
70053;BME280;57398;52.032;4.376;2023-04-03T01:18:39;103849.28;;;1.78;100.00
70053;BME280;57398;52.032;4.376;2023-04-03T01:24:51;103866.09;;;1.68;100.00
70053;BME280;57398;52.032;4.376;2023-04-03T01:27:41;103869.06;;;1.60;100.00
70053;BME280;57398;52.032;4.376;2023-04-03T01:30:32;103871.78;;;1.57;100.00
70053;BME280;57398;52.032;4.376;2023-04-03T01:33:22;103873.34;;;1.60;100.00
70053;BME280;57398;52.032;4.376;2023-04-03T01:36:16;103873.53;;;1.57;100.00
70053;BME280;57398;52.032;4.376;2023-04-03T01:39:05;103888.34;;;1.52;100.00
70053;BME280;57398;52.032;4.376;2023-04-03T01:41:53;103880.78;;;1.49;100.00
70053;BME280;57398;52.032;4.376;2023-04-03T01:44:42;103884.34;;;1.46;100.00
70053;BME280;57398;52.032;4.376;2023-04-03T01:47:30;103883.72;;;1.42;100.00
70053;BME280;57398;52.032;4.376;2023-04-03T01:50:19;103885.41;;;1.42;100.00
70053;BME280;57398;52.032;4.376;2023-04-03T01:53:08;103885.53;;;1.40;100.00
70053;BME280;57398;52.032;4.376;2023-04-03T01:55:58;103896.75;;;1.38;100.00
70053;BME280;57398;52.032;4.376;2023-04-03T01:58:46;103896.03;;;1.36;100.00
70053;BME280;57398;52.032;4.376;2023-04-03T02:01:34;103898.06;;;1.29;100.00
70053;BME280;57398;52.032;4.376;2023-04-03T02:04:23;103906.50;;;1.31;100.00
70053;BME280;57398;52.032;4.376;2023-04-03T02:07:13;103906.81;;;1.25;100.00
70053;BME280;57398;52.032;4.376;2023-04-03T02:10:01;103900.31;;;1.19;100.00
70053;BME280;57398;52.032;4.376;2023-04-03T02:12:50;103910.63;;;1.18;100.00
70053;BME280;57398;52.032;4.376;2023-04-03T02:15:39;103920.09;;;1.16;100.00
70053;BME280;57398;52.032;4.376;2023-04-03T02:18:27;103920.28;;;1.13;100.00
70053;BME280;57398;52.032;4.376;2023-04-03T02:21:15;103926.28;;;1.12;100.00
70053;BME280;57398;52.032;4.376;2023-04-03T02:24:05;103932.16;;;1.14;100.00
70053;BME280;57398;52.032;4.376;2023-04-03T02:26:53;103927.03;;;1.14;100.00
70053;BME280;57398;52.032;4.376;2023-04-03T02:29:41;103930.66;;;1.10;100.00
70053;BME280;57398;52.032;4.376;2023-04-03T02:32:30;103939.41;;;1.06;100.00
70053;BME280;57398;52.032;4.376;2023-04-03T02:35:18;103945.59;;;1.01;100.00
70053;BME280;57398;52.032;4.376;2023-04-03T02:38:07;103948.38;;;0.97;100.00
70053;BME280;57398;52.032;4.376;2023-04-03T02:41:00;103947.56;;;0.96;100.00
70053;BME280;57398;52.032;4.376;2023-04-03T02:43:49;103948.63;;;0.92;100.00
70053;BME280;57398;52.032;4.376;2023-04-03T02:46:37;103958.13;;;0.90;100.00
70053;BME280;57398;52.032;4.376;2023-04-03T02:49:25;103956.44;;;0.89;100.00
70053;BME280;57398;52.032;4.376;2023-04-03T02:52:13;103953.16;;;0.87;100.00
70053;BME280;57398;52.032;4.376;2023-04-03T02:55:01;103960.09;;;0.85;100.00
70053;BME280;57398;52.032;4.376;2023-04-03T02:57:51;103966.91;;;0.84;100.00
70053;BME280;57398;52.032;4.376;2023-04-03T03:00:40;103967.13;;;0.80;100.00
70053;BME280;57398;52.032;4.376;2023-04-03T03:03:28;103963.00;;;0.77;100.00
70053;BME280;57398;52.032;4.376;2023-04-03T03:06:17;103972.25;;;0.80;100.00
70053;BME280;57398;52.032;4.376;2023-04-03T03:09:05;103978.97;;;0.82;100.00
70053;BME280;57398;52.032;4.376;2023-04-03T03:11:53;103980.03;;;0.78;100.00
70053;BME280;57398;52.032;4.376;2023-04-03T03:14:43;103971.66;;;0.75;100.00
70053;BME280;57398;52.032;4.376;2023-04-03T03:17:31;103976.03;;;0.73;100.00
70053;BME280;57398;52.032;4.376;2023-04-03T03:20:19;103976.94;;;0.72;100.00
70053;BME280;57398;52.032;4.376;2023-04-03T03:23:08;103982.72;;;0.75;100.00
70053;BME280;57398;52.032;4.376;2023-04-03T03:25:59;103972.81;;;0.69;100.00
70053;BME280;57398;52.032;4.376;2023-04-03T03:28:48;103982.19;;;0.69;100.00
70053;BME280;57398;52.032;4.376;2023-04-03T03:31:37;103988.06;;;0.71;100.00
70053;BME280;57398;52.032;4.376;2023-04-03T03:34:25;104000.09;;;0.69;100.00
70053;BME280;57398;52.032;4.376;2023-04-03T03:37:14;104002.00;;;0.65;100.00
70053;BME280;57398;52.032;4.376;2023-04-03T03:40:02;104006.41;;;0.61;100.00
70053;BME280;57398;52.032;4.376;2023-04-03T03:42:50;104011.69;;;0.58;100.00
70053;BME280;57398;52.032;4.376;2023-04-03T03:45:38;104013.50;;;0.56;100.00
70053;BME280;57398;52.032;4.376;2023-04-03T03:48:28;104020.41;;;0.54;100.00
70053;BME280;57398;52.032;4.376;2023-04-03T03:51:16;104020.34;;;0.56;100.00
70053;BME280;57398;52.032;4.376;2023-04-03T03:54:05;104029.06;;;0.52;100.00
70053;BME280;57398;52.032;4.376;2023-04-03T03:56:53;104024.22;;;0.46;100.00
70053;BME280;57398;52.032;4.376;2023-04-03T03:59:41;104037.09;;;0.44;100.00
70053;BME280;57398;52.032;4.376;2023-04-03T04:02:31;104044.78;;;0.44;100.00
70053;BME280;57398;52.032;4.376;2023-04-03T04:05:20;104050.78;;;0.43;100.00
70053;BME280;57398;52.032;4.376;2023-04-03T04:08:08;104049.19;;;0.40;100.00
70053;BME280;57398;52.032;4.376;2023-04-03T04:10:56;104045.97;;;0.37;100.00
70053;BME280;57398;52.032;4.376;2023-04-03T04:13:45;104065.56;;;0.36;100.00
70053;BME280;57398;52.032;4.376;2023-04-03T04:16:33;104070.78;;;0.35;100.00
70053;BME280;57398;52.032;4.376;2023-04-03T04:19:21;104070.16;;;0.30;100.00
70053;BME280;57398;52.032;4.376;2023-04-03T04:22:10;104082.19;;;0.28;100.00
70053;BME280;57398;52.032;4.376;2023-04-03T04:24:59;104086.56;;;0.26;100.00
70053;BME280;57398;52.032;4.376;2023-04-03T04:27:47;104099.41;;;0.24;100.00
70053;BME280;57398;52.032;4.376;2023-04-03T04:30:39;104108.84;;;0.22;100.00
70053;BME280;57398;52.032;4.376;2023-04-03T04:33:27;104114.03;;;0.20;100.00
70053;BME280;57398;52.032;4.376;2023-04-03T04:36:15;104121.69;;;0.20;100.00
70053;BME280;57398;52.032;4.376;2023-04-03T04:39:05;104124.97;;;0.24;100.00
70053;BME280;57398;52.032;4.376;2023-04-03T04:41:53;104130.00;;;0.26;100.00
70053;BME280;57398;52.032;4.376;2023-04-03T04:44:41;104129.25;;;0.24;100.00
70053;BME280;57398;52.032;4.376;2023-04-03T04:47:32;104141.31;;;0.20;100.00
70053;BME280;57398;52.032;4.376;2023-04-03T04:50:45;104130.84;;;0.07;100.00
70053;BME280;57398;52.032;4.376;2023-04-03T04:53:33;104161.00;;;0.18;100.00
70053;BME280;57398;52.032;4.376;2023-04-03T04:56:23;104164.28;;;0.22;100.00
70053;BME280;57398;52.032;4.376;2023-04-03T04:59:12;104177.75;;;0.25;100.00
70053;BME280;57398;52.032;4.376;2023-04-03T05:02:00;104169.41;;;0.22;100.00
70053;BME280;57398;52.032;4.376;2023-04-03T05:04:48;104169.41;;;0.22;100.00
70053;BME280;57398;52.032;4.376;2023-04-03T05:07:39;104176.28;;;0.19;100.00
70053;BME280;57398;52.032;4.376;2023-04-03T05:10:27;104169.66;;;0.15;100.00
70053;BME280;57398;52.032;4.376;2023-04-03T05:13:17;104182.22;;;0.20;100.00
70053;BME280;57398;52.032;4.376;2023-04-03T05:16:05;104188.13;;;0.22;100.00
70053;BME280;57398;52.032;4.376;2023-04-03T05:18:54;104184.09;;;0.16;100.00
70053;BME280;57398;52.032;4.376;2023-04-03T05:21:42;104191.78;;;0.16;100.00
70053;BME280;57398;52.032;4.376;2023-04-03T05:24:30;104196.94;;;0.15;100.00
70053;BME280;57398;52.032;4.376;2023-04-03T05:27:18;104208.81;;;0.16;100.00
70053;BME280;57398;52.032;4.376;2023-04-03T05:30:08;104214.66;;;0.19;100.00
70053;BME280;57398;52.032;4.376;2023-04-03T05:32:57;104220.31;;;0.26;100.00
70053;BME280;57398;52.032;4.376;2023-04-03T05:35:45;104225.25;;;0.31;100.00
70053;BME280;57398;52.032;4.376;2023-04-03T05:38:34;104225.25;;;0.31;100.00
70053;BME280;57398;52.032;4.376;2023-04-03T05:41:22;104220.81;;;0.34;100.00
70053;BME280;57398;52.032;4.376;2023-04-03T05:44:10;104230.97;;;0.36;100.00
70053;BME280;57398;52.032;4.376;2023-04-03T05:47:00;104229.13;;;0.39;100.00
70053;BME280;57398;52.032;4.376;2023-04-03T05:49:50;104223.09;;;0.40;100.00
70053;BME280;57398;52.032;4.376;2023-04-03T05:52:41;104222.22;;;0.41;100.00
70053;BME280;57398;52.032;4.376;2023-04-03T05:55:30;104233.03;;;0.48;100.00
70053;BME280;57398;52.032;4.376;2023-04-03T05:58:18;104238.97;;;0.49;100.00
70053;BME280;57398;52.032;4.376;2023-04-03T06:01:07;104242.28;;;0.51;100.00
70053;BME280;57398;52.032;4.376;2023-04-03T06:03:56;104248.22;;;0.51;100.00
70053;BME280;57398;52.032;4.376;2023-04-03T06:06:49;104236.41;;;0.49;100.00
70053;BME280;57398;52.032;4.376;2023-04-03T06:09:39;104247.44;;;0.49;100.00
70053;BME280;57398;52.032;4.376;2023-04-03T06:12:27;104260.75;;;0.57;100.00
70053;BME280;57398;52.032;4.376;2023-04-03T06:15:16;104262.41;;;0.58;100.00
70053;BME280;57398;52.032;4.376;2023-04-03T06:18:04;104260.53;;;0.62;100.00
70053;BME280;57398;52.032;4.376;2023-04-03T06:20:56;104253.34;;;0.70;100.00
70053;BME280;57398;52.032;4.376;2023-04-03T06:23:45;104258.25;;;0.75;100.00
70053;BME280;57398;52.032;4.376;2023-04-03T06:26:33;104267.81;;;0.90;100.00
70053;BME280;57398;52.032;4.376;2023-04-03T06:29:21;104270.09;;;0.96;100.00
70053;BME280;57398;52.032;4.376;2023-04-03T06:32:10;104268.81;;;1.05;100.00
70053;BME280;57398;52.032;4.376;2023-04-03T06:34:58;104258.09;;;1.16;100.00
70053;BME280;57398;52.032;4.376;2023-04-03T06:37:48;104254.13;;;1.28;100.00
70053;BME280;57398;52.032;4.376;2023-04-03T06:40:37;104236.69;;;1.36;100.00
70053;BME280;57398;52.032;4.376;2023-04-03T06:43:26;104230.41;;;1.41;100.00
70053;BME280;57398;52.032;4.376;2023-04-03T06:46:15;104213.25;;;1.43;100.00
70053;BME280;57398;52.032;4.376;2023-04-03T06:49:04;104211.28;;;1.49;100.00
70053;BME280;57398;52.032;4.376;2023-04-03T06:51:54;104201.50;;;1.57;100.00
70053;BME280;57398;52.032;4.376;2023-04-03T06:54:43;104187.47;;;1.64;100.00
70053;BME280;57398;52.032;4.376;2023-04-03T06:57:32;104168.41;;;1.70;100.00
70053;BME280;57398;52.032;4.376;2023-04-03T07:00:21;104160.31;;;1.77;100.00
70053;BME280;57398;52.032;4.376;2023-04-03T07:03:09;104154.91;;;1.83;100.00
70053;BME280;57398;52.032;4.376;2023-04-03T07:05:57;104137.59;;;1.87;100.00
70053;BME280;57398;52.032;4.376;2023-04-03T07:08:55;104135.38;;;1.97;100.00
70053;BME280;57398;52.032;4.376;2023-04-03T07:11:45;104116.25;;;2.04;100.00
70053;BME280;57398;52.032;4.376;2023-04-03T07:14:33;104121.78;;;2.12;100.00
70053;BME280;57398;52.032;4.376;2023-04-03T07:17:22;104103.00;;;2.12;100.00
70053;BME280;57398;52.032;4.376;2023-04-03T07:20:13;104097.44;;;2.19;100.00
70053;BME280;57398;52.032;4.376;2023-04-03T07:23:02;104084.13;;;2.28;100.00
70053;BME280;57398;52.032;4.376;2023-04-03T07:25:51;104092.25;;;2.37;100.00
70053;BME280;57398;52.032;4.376;2023-04-03T07:28:43;104073.22;;;2.41;100.00
70053;BME280;57398;52.032;4.376;2023-04-03T07:31:31;104078.25;;;2.42;100.00
70053;BME280;57398;52.032;4.376;2023-04-03T07:34:21;104059.38;;;2.43;100.00
70053;BME280;57398;52.032;4.376;2023-04-03T07:37:09;104063.00;;;2.55;100.00
70053;BME280;57398;52.032;4.376;2023-04-03T07:39:57;104057.09;;;2.69;100.00
70053;BME280;57398;52.032;4.376;2023-04-03T07:42:47;104046.50;;;2.75;100.00
70053;BME280;57398;52.032;4.376;2023-04-03T07:45:38;104042.75;;;2.81;100.00
70053;BME280;57398;52.032;4.376;2023-04-03T07:48:26;104037.00;;;2.91;100.00
70053;BME280;57398;52.032;4.376;2023-04-03T07:51:17;104015.53;;;3.07;100.00
70053;BME280;57398;52.032;4.376;2023-04-03T07:54:06;103990.69;;;3.22;100.00
70053;BME280;57398;52.032;4.376;2023-04-03T07:56:54;103973.19;;;3.28;100.00
70053;BME280;57398;52.032;4.376;2023-04-03T07:59:43;103937.84;;;3.32;100.00
70053;BME280;57398;52.032;4.376;2023-04-03T08:02:32;103919.88;;;3.18;100.00
70053;BME280;57398;52.032;4.376;2023-04-03T08:05:21;103901.25;;;3.28;100.00
70053;BME280;57398;52.032;4.376;2023-04-03T08:08:10;103896.16;;;3.41;100.00
70053;BME280;57398;52.032;4.376;2023-04-03T08:11:00;103873.69;;;3.45;100.00
70053;BME280;57398;52.032;4.376;2023-04-03T08:13:49;103858.91;;;3.48;100.00
70053;BME280;57398;52.032;4.376;2023-04-03T08:16:39;103850.97;;;3.51;100.00
70053;BME280;57398;52.032;4.376;2023-04-03T08:19:31;103839.44;;;3.71;100.00
70053;BME280;57398;52.032;4.376;2023-04-03T08:22:19;103823.94;;;3.86;100.00
70053;BME280;57398;52.032;4.376;2023-04-03T08:25:08;103812.09;;;3.96;100.00
70053;BME280;57398;52.032;4.376;2023-04-03T08:27:56;103782.78;;;3.98;100.00
70053;BME280;57398;52.032;4.376;2023-04-03T08:30:45;103767.47;;;3.97;100.00
70053;BME280;57398;52.032;4.376;2023-04-03T08:33:34;103769.22;;;4.09;100.00
70053;BME280;57398;52.032;4.376;2023-04-03T08:36:28;103771.59;;;4.25;100.00
70053;BME280;57398;52.032;4.376;2023-04-03T08:39:17;103765.16;;;5.41;100.00
70053;BME280;57398;52.032;4.376;2023-04-03T08:42:15;103680.97;;;6.32;100.00
70053;BME280;57398;52.032;4.376;2023-04-03T08:45:10;103655.63;;;6.81;100.00
70053;BME280;57398;52.032;4.376;2023-04-03T08:48:04;103618.00;;;7.09;100.00
70053;BME280;57398;52.032;4.376;2023-04-03T08:50:57;103599.81;;;7.72;100.00
70053;BME280;57398;52.032;4.376;2023-04-03T08:53:55;103581.94;;;7.69;100.00
70053;BME280;57398;52.032;4.376;2023-04-03T08:56:44;103573.66;;;8.45;100.00
70053;BME280;57398;52.032;4.376;2023-04-03T08:59:34;103547.94;;;7.83;100.00
70053;BME280;57398;52.032;4.376;2023-04-03T09:02:28;103531.66;;;7.52;100.00
70053;BME280;57398;52.032;4.376;2023-04-03T09:05:29;103528.63;;;7.97;100.00
70053;BME280;57398;52.032;4.376;2023-04-03T09:08:24;103518.25;;;8.85;100.00
70053;BME280;57398;52.032;4.376;2023-04-03T09:11:20;103516.75;;;8.72;100.00
70053;BME280;57398;52.032;4.376;2023-04-03T09:14:19;103527.69;;;9.13;100.00
70053;BME280;57398;52.032;4.376;2023-04-03T09:17:14;103494.75;;;8.86;100.00
70053;BME280;57398;52.032;4.376;2023-04-03T09:20:14;103491.81;;;8.71;100.00
70053;BME280;57398;52.032;4.376;2023-04-03T09:23:14;103490.63;;;8.07;100.00
70053;BME280;57398;52.032;4.376;2023-04-03T09:26:13;103503.97;;;9.08;100.00
70053;BME280;57398;52.032;4.376;2023-04-03T09:29:06;103486.53;;;9.56;100.00
70053;BME280;57398;52.032;4.376;2023-04-03T09:32:00;103482.72;;;8.95;96.85
70053;BME280;57398;52.032;4.376;2023-04-03T09:34:49;103474.94;;;9.50;92.39
70053;BME280;57398;52.032;4.376;2023-04-03T09:37:40;103466.00;;;9.44;91.38
70053;BME280;57398;52.032;4.376;2023-04-03T09:40:35;103446.31;;;8.96;85.09
70053;BME280;57398;52.032;4.376;2023-04-03T09:43:28;103440.56;;;9.20;84.68
70053;BME280;57398;52.032;4.376;2023-04-03T09:46:29;103432.66;;;8.94;83.39
70053;BME280;57398;52.032;4.376;2023-04-03T09:49:19;103417.00;;;9.41;81.97
70053;BME280;57398;52.032;4.376;2023-04-03T09:52:19;103421.56;;;9.02;78.06
70053;BME280;57398;52.032;4.376;2023-04-03T09:55:13;103419.78;;;9.30;77.17
70053;BME280;57398;52.032;4.376;2023-04-03T09:58:03;103420.59;;;8.75;72.67
70053;BME280;57398;52.032;4.376;2023-04-03T10:00:56;103416.75;;;8.79;73.00
70053;BME280;57398;52.032;4.376;2023-04-03T10:04:03;103416.28;;;8.56;70.13
70053;BME280;57398;52.032;4.376;2023-04-03T10:06:53;103407.22;;;8.80;71.70
70053;BME280;57398;52.032;4.376;2023-04-03T10:09:55;103412.50;;;8.88;71.50
70053;BME280;57398;52.032;4.376;2023-04-03T10:12:43;103405.81;;;8.86;70.68
70053;BME280;57398;52.032;4.376;2023-04-03T10:15:36;103411.97;;;8.28;64.03
70053;BME280;57398;52.032;4.376;2023-04-03T10:18:33;103407.13;;;7.95;65.38
70053;BME280;57398;52.032;4.376;2023-04-03T10:21:36;103396.88;;;8.23;67.44
70053;BME280;57398;52.032;4.376;2023-04-03T10:24:33;103394.09;;;8.81;78.58
70053;BME280;57398;52.032;4.376;2023-04-03T10:27:37;103393.78;;;8.94;69.09
70053;BME280;57398;52.032;4.376;2023-04-03T10:30:36;103390.31;;;8.76;69.21
70053;BME280;57398;52.032;4.376;2023-04-03T10:33:36;103403.53;;;8.26;70.63
70053;BME280;57398;52.032;4.376;2023-04-03T10:36:35;103394.56;;;8.20;72.48
70053;BME280;57398;52.032;4.376;2023-04-03T10:39:30;103400.19;;;7.76;72.13
70053;BME280;57398;52.032;4.376;2023-04-03T10:42:28;103390.78;;;7.95;71.25
70053;BME280;57398;52.032;4.376;2023-04-03T10:45:22;103397.84;;;7.83;70.42
70053;BME280;57398;52.032;4.376;2023-04-03T10:48:16;103389.16;;;7.84;70.55
70053;BME280;57398;52.032;4.376;2023-04-03T10:51:16;103387.06;;;8.17;73.99
70053;BME280;57398;52.032;4.376;2023-04-03T10:54:11;103386.72;;;8.49;75.94
70053;BME280;57398;52.032;4.376;2023-04-03T10:57:06;103386.56;;;8.60;69.42
70053;BME280;57398;52.032;4.376;2023-04-03T11:00:03;103383.09;;;8.70;69.35
70053;BME280;57398;52.032;4.376;2023-04-03T11:02:58;103379.94;;;9.04;72.97
70053;BME280;57398;52.032;4.376;2023-04-03T11:05:50;103380.34;;;8.44;67.13
70053;BME280;57398;52.032;4.376;2023-04-03T11:08:44;103368.88;;;8.46;67.41
70053;BME280;57398;52.032;4.376;2023-04-03T11:11:37;103369.69;;;8.37;64.46
70053;BME280;57398;52.032;4.376;2023-04-03T11:14:28;103359.88;;;8.41;65.42
70053;BME280;57398;52.032;4.376;2023-04-03T11:17:24;103373.16;;;8.65;64.69
70053;BME280;57398;52.032;4.376;2023-04-03T11:20:18;103361.06;;;9.11;69.99
70053;BME280;57398;52.032;4.376;2023-04-03T11:23:15;103366.28;;;8.46;61.06
70053;BME280;57398;52.032;4.376;2023-04-03T11:26:10;103367.00;;;8.29;59.83
70053;BME280;57398;52.032;4.376;2023-04-03T11:29:06;103362.81;;;8.65;68.61
70053;BME280;57398;52.032;4.376;2023-04-03T11:32:09;103354.41;;;8.81;63.10
70053;BME280;57398;52.032;4.376;2023-04-03T11:35:01;103351.75;;;8.91;62.45
70053;BME280;57398;52.032;4.376;2023-04-03T11:37:57;103354.94;;;8.57;63.78
70053;BME280;57398;52.032;4.376;2023-04-03T11:40:48;103344.94;;;8.25;61.14
70053;BME280;57398;52.032;4.376;2023-04-03T11:43:40;103336.16;;;8.45;61.64
70053;BME280;57398;52.032;4.376;2023-04-03T11:46:53;103331.13;;;8.99;62.64
70053;BME280;57398;52.032;4.376;2023-04-03T11:49:55;103323.72;;;9.04;61.90
70053;BME280;57398;52.032;4.376;2023-04-03T11:53:10;103320.84;;;9.25;60.90
70053;BME280;57398;52.032;4.376;2023-04-03T11:56:29;103308.22;;;9.48;65.40
70053;BME280;57398;52.032;4.376;2023-04-03T11:59:23;103318.09;;;9.62;62.93
70053;BME280;57398;52.032;4.376;2023-04-03T12:02:37;103324.19;;;9.17;59.69
70053;BME280;57398;52.032;4.376;2023-04-03T12:05:30;103313.81;;;9.17;57.39
70053;BME280;57398;52.032;4.376;2023-04-03T12:08:25;103322.09;;;9.03;52.66
70053;BME280;57398;52.032;4.376;2023-04-03T12:11:15;103305.41;;;8.88;51.55
70053;BME280;57398;52.032;4.376;2023-04-03T12:14:14;103305.34;;;8.97;52.14
70053;BME280;57398;52.032;4.376;2023-04-03T12:17:20;103301.38;;;9.21;52.08
70053;BME280;57398;52.032;4.376;2023-04-03T12:23:58;103291.03;;;9.91;55.46
70053;BME280;57398;52.032;4.376;2023-04-03T12:27:02;103291.91;;;9.74;53.35
70053;BME280;57398;52.032;4.376;2023-04-03T12:29:55;103287.69;;;9.55;49.26
70053;BME280;57398;52.032;4.376;2023-04-03T12:32:54;103289.28;;;9.12;47.48
70053;BME280;57398;52.032;4.376;2023-04-03T12:36:05;103270.41;;;9.63;51.20
70053;BME280;57398;52.032;4.376;2023-04-03T12:39:12;103262.66;;;9.98;50.81
70053;BME280;57398;52.032;4.376;2023-04-03T12:42:15;103257.47;;;9.46;47.92
70053;BME280;57398;52.032;4.376;2023-04-03T12:45:13;103263.03;;;9.77;48.63
70053;BME280;57398;52.032;4.376;2023-04-03T12:48:14;103258.44;;;9.44;46.20
70053;BME280;57398;52.032;4.376;2023-04-03T12:51:03;103254.41;;;9.50;46.92
70053;BME280;57398;52.032;4.376;2023-04-03T12:54:00;103260.34;;;9.60;47.60
70053;BME280;57398;52.032;4.376;2023-04-03T12:56:50;103259.16;;;9.55;45.14
70053;BME280;57398;52.032;4.376;2023-04-03T12:59:38;103253.66;;;9.84;52.71
70053;BME280;57398;52.032;4.376;2023-04-03T13:02:29;103255.38;;;9.75;49.15
70053;BME280;57398;52.032;4.376;2023-04-03T13:05:19;103254.66;;;9.39;48.60
70053;BME280;57398;52.032;4.376;2023-04-03T13:08:13;103248.88;;;9.45;49.05
70053;BME280;57398;52.032;4.376;2023-04-03T13:11:10;103248.41;;;9.50;48.05
70053;BME280;57398;52.032;4.376;2023-04-03T13:14:15;103255.25;;;9.77;50.29
70053;BME280;57398;52.032;4.376;2023-04-03T13:17:06;103248.09;;;10.05;50.22
70053;BME280;57398;52.032;4.376;2023-04-03T13:20:11;103240.34;;;9.79;50.65
70053;BME280;57398;52.032;4.376;2023-04-03T13:23:02;103247.63;;;10.10;54.51
70053;BME280;57398;52.032;4.376;2023-04-03T13:25:52;103250.03;;;10.37;54.40
70053;BME280;57398;52.032;4.376;2023-04-03T13:28:41;103243.41;;;10.51;54.76
70053;BME280;57398;52.032;4.376;2023-04-03T13:31:33;103251.81;;;10.37;53.20
70053;BME280;57398;52.032;4.376;2023-04-03T13:34:23;103237.94;;;9.85;54.19
70053;BME280;57398;52.032;4.376;2023-04-03T13:37:20;103233.75;;;9.93;53.15
70053;BME280;57398;52.032;4.376;2023-04-03T13:40:11;103230.72;;;10.05;61.27
70053;BME280;57398;52.032;4.376;2023-04-03T13:43:05;103239.66;;;9.77;56.14
70053;BME280;57398;52.032;4.376;2023-04-03T13:45:57;103238.66;;;9.70;54.04
70053;BME280;57398;52.032;4.376;2023-04-03T13:49:19;103231.53;;;9.72;55.63
70053;BME280;57398;52.032;4.376;2023-04-03T13:52:28;103221.31;;;9.44;55.70
70053;BME280;57398;52.032;4.376;2023-04-03T13:55:22;103210.44;;;10.09;62.35
70053;BME280;57398;52.032;4.376;2023-04-03T13:58:21;103228.44;;;10.37;65.81
70053;BME280;57398;52.032;4.376;2023-04-03T14:01:17;103221.66;;;10.10;58.02
70053;BME280;57398;52.032;4.376;2023-04-03T14:04:15;103218.19;;;9.67;55.04
70053;BME280;57398;52.032;4.376;2023-04-03T14:07:05;103219.50;;;9.97;57.64
70053;BME280;57398;52.032;4.376;2023-04-03T14:09:55;103213.19;;;10.07;59.95
70053;BME280;57398;52.032;4.376;2023-04-03T14:12:44;103213.31;;;9.90;56.53
70053;BME280;57398;52.032;4.376;2023-04-03T14:15:38;103208.97;;;10.06;57.08
70053;BME280;57398;52.032;4.376;2023-04-03T14:18:27;103198.91;;;10.03;60.02
70053;BME280;57398;52.032;4.376;2023-04-03T14:21:17;103192.31;;;10.25;61.28
70053;BME280;57398;52.032;4.376;2023-04-03T14:24:09;103195.88;;;10.16;57.55
70053;BME280;57398;52.032;4.376;2023-04-03T14:26:58;103189.69;;;10.09;54.66
70053;BME280;57398;52.032;4.376;2023-04-03T14:29:49;103187.34;;;9.90;54.76
70053;BME280;57398;52.032;4.376;2023-04-03T14:32:40;103181.09;;;10.09;55.58
70053;BME280;57398;52.032;4.376;2023-04-03T14:35:32;103183.81;;;9.99;53.46
70053;BME280;57398;52.032;4.376;2023-04-03T14:38:24;103187.03;;;9.93;51.10
70053;BME280;57398;52.032;4.376;2023-04-03T14:41:18;103185.47;;;9.74;50.14
70053;BME280;57398;52.032;4.376;2023-04-03T14:44:07;103179.91;;;10.03;52.26
70053;BME280;57398;52.032;4.376;2023-04-03T14:46:55;103183.44;;;9.85;51.70
70053;BME280;57398;52.032;4.376;2023-04-03T14:49:44;103176.84;;;9.73;52.46
70053;BME280;57398;52.032;4.376;2023-04-03T14:52:35;103182.72;;;9.75;52.28
70053;BME280;57398;52.032;4.376;2023-04-03T14:55:29;103176.22;;;9.71;53.13
70053;BME280;57398;52.032;4.376;2023-04-03T14:58:20;103171.06;;;9.79;52.44
70053;BME280;57398;52.032;4.376;2023-04-03T15:01:10;103181.97;;;9.83;53.25
70053;BME280;57398;52.032;4.376;2023-04-03T15:03:58;103179.69;;;9.88;55.03
70053;BME280;57398;52.032;4.376;2023-04-03T15:06:56;103189.09;;;9.81;55.82
70053;BME280;57398;52.032;4.376;2023-04-03T15:09:55;103182.16;;;9.90;54.93